Keimouth Airport


Codes: FAKE/
Name: Keimouth Airport
City: Keimouth
Country: South Africa
Elevation: 222 ft.

Photos at Keimouth Airport


   Photos courtesy of SpottingLog. You can add your own sightings and photos by signing up for a free trial today.



No photos found.

Weather at Keimouth Airport


Time (UTC)DescriptionTempratureWindCloud coverageVisibilityPressureHumidity
18-Apr-2024 00:00Clear Sky21°C7 mph, N8%10000m1017hPa66%
18-Apr-2024 03:00Scattered Clouds21°C7 mph, N28%10000m1016hPa64%
18-Apr-2024 06:00Scattered Clouds23°C7 mph, W36%10000m1018hPa60%
18-Apr-2024 09:00Broken Clouds26°C9 mph, S77%10000m1018hPa60%
18-Apr-2024 12:00Broken Clouds25°C11 mph, S71%10000m1017hPa68%
18-Apr-2024 15:00Scattered Clouds23°C9 mph, SW40%10000m1018hPa79%
18-Apr-2024 18:00Scattered Clouds20°C7 mph, W45%10000m1020hPa91%
18-Apr-2024 21:00Broken Clouds20°C7 mph, W71%10000m1020hPa89%
19-Apr-2024 00:00Broken Clouds19°C7 mph, W60%10000m1019hPa89%
19-Apr-2024 03:00Scattered Clouds19°C7 mph, W38%10000m1019hPa90%
19-Apr-2024 06:00Scattered Clouds21°C4 mph, W49%10000m1020hPa82%
19-Apr-2024 09:00Scattered Clouds24°C4 mph, SE40%10000m1018hPa68%
19-Apr-2024 12:00Scattered Clouds24°C9 mph, SE27%10000m1016hPa70%
19-Apr-2024 15:00Overcast Clouds22°C7 mph, E96%10000m1016hPa83%
19-Apr-2024 18:00Overcast Clouds22°C7 mph, NE97%10000m1016hPa83%
19-Apr-2024 21:00Overcast Clouds20°C7 mph, NE96%10000m1015hPa89%
20-Apr-2024 00:00Overcast Clouds20°C7 mph, NE97%10000m1013hPa91%
20-Apr-2024 03:00Overcast Clouds20°C4 mph, N100%10000m1013hPa91%
20-Apr-2024 06:00Broken Clouds21°C2 mph, NW84%10000m1013hPa84%
20-Apr-2024 09:00Overcast Clouds24°C4 mph, S99%10000m1013hPa77%
20-Apr-2024 12:00Light Rain23°C11 mph, SE97%10000m1012hPa85%
20-Apr-2024 15:00Light Rain21°C9 mph, SE100%10000m1014hPa93%
20-Apr-2024 18:00Light Rain21°C7 mph, SE100%10000m1016hPa92%
20-Apr-2024 21:00Light Rain20°C7 mph, S100%10000m1017hPa93%
21-Apr-2024 00:00Light Rain20°C4 mph, SE100%10000m1016hPa88%
21-Apr-2024 03:00Light Rain20°C4 mph, SE100%10000m1016hPa89%
21-Apr-2024 06:00Light Rain20°C4 mph, E100%10000m1017hPa86%
21-Apr-2024 09:00Overcast Clouds21°C9 mph, NE98%10000m1017hPa82%
21-Apr-2024 12:00Overcast Clouds22°C13 mph, NE97%10000m1014hPa74%
21-Apr-2024 15:00Overcast Clouds21°C18 mph, NE100%10000m1013hPa79%
21-Apr-2024 18:00Overcast Clouds21°C18 mph, NE100%10000m1012hPa81%
21-Apr-2024 21:00Overcast Clouds20°C18 mph, NE100%10000m1010hPa86%
22-Apr-2024 00:00Overcast Clouds19°C13 mph, NE100%10000m1008hPa88%
22-Apr-2024 03:00Overcast Clouds19°C7 mph, N100%10000m1007hPa85%
22-Apr-2024 06:00Overcast Clouds21°C2 mph, NW100%10000m1008hPa73%
22-Apr-2024 09:00Overcast Clouds24°C11 mph, SW100%10000m1009hPa63%
22-Apr-2024 12:00Overcast Clouds24°C18 mph, SW100%10000m1008hPa67%
22-Apr-2024 15:00Overcast Clouds22°C20 mph, SW100%10000m1010hPa74%
22-Apr-2024 18:00Overcast Clouds20°C18 mph, SW90%10000m1014hPa70%
22-Apr-2024 21:00Overcast Clouds20°C16 mph, W93%10000m1015hPa61%